Дата Пункты Температура Давл., мм. Влажн., % Ветер Погодные явления
Воздуха Воды Направл. Скорость
05.03.19 11:00 Одесса 8.0 4.0 754 66 Пн 0 23 ГОДИНИ
05.03.19 08:00 Одесса 10.0 4.0 753 58 Пн 0 20 ГОДИН
05.03.19 05:00 Одесса 14.0 4.0 750 45 Пн-З 2 17 ГОДИН
05.03.19 02:00 Одесса 19.0 4.0 748 30 З 4 14 ГОДИН
05.03.19 11:00 Одесса 10.0 4.0 749 71 Пд-З 4 11 ГОДИН
05.03.19 08:00 Одесса 6.0 4.0 749 84 Пд-З 5 08 ГОДИН
05.03.19 05:00 Одесса 6.0 4.0 750 86 Пд-З 2 05 ГОДИН
05.03.19 02:00 Одесса 5.0 4.0 752 85 Пд-З 2 02 ГОДИНИ
04.03.19 08:00 Одесса 8.0 4.0 753 62 Пд-З 3 20 ГОДИН
04.03.19 05:00 Одесса 7.0 4.0 753 70 Пд-З 2 17 ГОДИН
04.03.19 02:00 Одесса 9.0 4.0 755 63 Пд-З 4 14 ГОДИН
04.03.19 11:00 Одесса 8.0 3.0 756 60 Пд-З 2 11 ГОДИН
04.03.19 08:00 Одесса 3.0 3.0 756 82 З 3 08 ГОДИН
04.03.19 05:00 Одесса 2.0 3.0 757 81 Пд-З 3 05 ГОДИН
04.03.19 02:00 Одесса 2.0 3.0 757 80 Пд-З 4 02 ГОДИНИ
03.03.19 11:00 Одесса 2.0 3.0 759 73 Пд-З 2 23 ГОДИНИ
03.03.19 08:00 Одесса 2.0 3.0 759 69 Пд-З 2 20 ГОДИН
03.03.19 05:00 Одесса 3.0 3.0 760 57 Пд-З 2 17 ГОДИН
03.03.19 02:00 Одесса 4.0 3.0 761 57 Пд 2 14 ГОДИН
03.03.19 11:00 Одесса 2.0 3.0 762 60 Пд-С 1 11 ГОДИН
Количество строк
1 2 3 4 5 6 7 8 9 10
Page 8 of 472